Time;durP1;ratioP1;P1;durP2;ratioP2;P2;SDS_P1;SDS_P2;PMS_P1;PMS_P2;Temp;Humidity;BMP_temperature;BMP_pressure;BME280_temperature;BME280_humidity;BME280_pressure;Samples;Min_cycle;Max_cycle;Signal;HPM_P1;HPM_P2
2022/03/09 00:00:05;;;;;;;23.15;8.57;;;;;;;;;;5050939;28;20025;-85
2022/03/09 00:02:31;;;;;;;25.95;8.88;;;;;;;;;;5051748;28;20128;-85
2022/03/09 00:04:57;;;;;;;24.13;8.35;;;;;;;;;;5050505;28;20025;-85
2022/03/09 00:07:24;;;;;;;22.17;8.82;;;;;;;;;;5049632;28;20365;-85
2022/03/09 00:09:50;;;;;;;26.10;8.93;;;;;;;;;;5050504;28;20064;-84
2022/03/09 00:12:16;;;;;;;32.97;9.27;;;;;;;;;;5050539;28;20120;-84
2022/03/09 00:14:42;;;;;;;21.65;8.75;;;;;;;;;;5049178;28;20021;-85
2022/03/09 00:17:08;;;;;;;23.98;8.00;;;;;;;;;;5050022;28;20028;-85
2022/03/09 00:19:34;;;;;;;22.42;9.05;;;;;;;;;;5051528;28;20025;-84
2022/03/09 00:22:00;;;;;;;19.73;8.48;;;;;;;;;;5051490;28;20075;-84
2022/03/09 00:24:26;;;;;;;32.40;8.90;;;;;;;;;;5050660;28;20504;-85
2022/03/09 00:26:52;;;;;;;24.88;8.77;;;;;;;;;;5050468;28;20025;-84
2022/03/09 00:29:18;;;;;;;17.95;8.10;;;;;;;;;;5050486;28;20407;-84
2022/03/09 00:31:44;;;;;;;25.10;8.70;;;;;;;;;;5049531;28;20420;-84
2022/03/09 00:34:10;;;;;;;25.33;8.80;;;;;;;;;;5050232;28;20396;-85
2022/03/09 00:36:36;;;;;;;23.92;8.95;;;;;;;;;;5050440;28;20025;-85
2022/03/09 00:39:03;;;;;;;19.27;8.45;;;;;;;;;;5049047;28;20025;-84
2022/03/09 00:41:29;;;;;;;24.00;10.18;;;;;;;;;;5048407;28;20546;-86
2022/03/09 00:43:55;;;;;;;26.35;9.20;;;;;;;;;;5049870;28;20033;-84
2022/03/09 00:46:21;;;;;;;27.95;10.25;;;;;;;;;;5049034;28;20078;-87
2022/03/09 00:48:47;;;;;;;28.25;8.98;;;;;;;;;;5050065;28;20036;-85
2022/03/09 00:51:13;;;;;;;26.15;8.57;;;;;;;;;;5049516;28;20484;-84
2022/03/09 00:53:39;;;;;;;22.65;8.73;;;;;;;;;;5049971;28;20032;-85
2022/03/09 00:56:07;;;;;;;19.80;10.15;;;;;;;;;;5049544;28;20021;-84
2022/03/09 00:58:33;;;;;;;23.05;8.68;;;;;;;;;;5050693;28;20029;-84
2022/03/09 01:00:59;;;;;;;26.08;9.10;;;;;;;;;;5049038;28;20057;-85
2022/03/09 01:03:25;;;;;;;17.92;8.20;;;;;;;;;;5049733;28;20029;-85
2022/03/09 01:05:51;;;;;;;18.08;8.32;;;;;;;;;;5048415;28;20079;-84
2022/03/09 01:08:17;;;;;;;19.55;8.68;;;;;;;;;;5048283;28;20393;-86
2022/03/09 01:10:43;;;;;;;26.15;8.73;;;;;;;;;;5048279;28;20025;-84
2022/03/09 01:13:09;;;;;;;24.92;8.52;;;;;;;;;;5049608;28;20020;-86
2022/03/09 01:15:35;;;;;;;21.15;9.02;;;;;;;;;;5049732;28;20017;-86
2022/03/09 01:18:01;;;;;;;19.25;8.73;;;;;;;;;;5049498;28;20035;-84
2022/03/09 01:20:27;;;;;;;22.30;8.85;;;;;;;;;;5048262;28;20498;-85
2022/03/09 01:22:54;;;;;;;21.20;7.93;;;;;;;;;;5048097;28;20084;-85
2022/03/09 01:25:20;;;;;;;22.40;8.05;;;;;;;;;;5048020;28;20033;-85
2022/03/09 01:27:46;;;;;;;18.63;8.40;;;;;;;;;;5048073;28;20017;-85
2022/03/09 01:30:12;;;;;;;15.90;8.43;;;;;;;;;;5048210;28;20025;-84
2022/03/09 01:32:38;;;;;;;24.40;8.70;;;;;;;;;;5049063;28;20048;-85
2022/03/09 01:35:05;;;;;;;22.98;8.85;;;;;;;;;;5048393;28;20028;-84
2022/03/09 01:37:31;;;;;;;22.83;9.05;;;;;;;;;;5048736;28;20025;-84
2022/03/09 01:39:57;;;;;;;32.28;10.35;;;;;;;;;;5048452;28;20056;-85
2022/03/09 01:42:23;;;;;;;25.23;9.40;;;;;;;;;;5047806;28;20025;-84
2022/03/09 01:44:49;;;;;;;21.85;9.85;;;;;;;;;;5048525;28;20135;-85
2022/03/09 01:47:15;;;;;;;18.73;8.85;;;;;;;;;;5047784;28;20021;-85
2022/03/09 01:49:42;;;;;;;25.25;9.45;;;;;;;;;;5048887;28;20053;-84
2022/03/09 01:52:08;;;;;;;24.65;9.70;;;;;;;;;;5049889;28;20484;-84
2022/03/09 01:54:34;;;;;;;27.73;9.45;;;;;;;;;;5048306;28;20029;-85
2022/03/09 01:57:01;;;;;;;23.30;9.43;;;;;;;;;;5048851;28;20025;-85
2022/03/09 01:59:27;;;;;;;16.17;9.20;;;;;;;;;;5048449;28;20493;-84
2022/03/09 02:01:53;;;;;;;19.90;8.55;;;;;;;;;;5048043;28;20021;-85
2022/03/09 02:04:20;;;;;;;22.05;9.50;;;;;;;;;;5048922;28;20048;-84
2022/03/09 02:06:46;;;;;;;22.08;9.50;;;;;;;;;;5048946;28;20021;-85
2022/03/09 02:11:58;;;;;;;21.45;10.45;;;;;;;;;;5048895;28;20040;-84
2022/03/09 02:14:30;;;;;;;21.00;9.82;;;;;;;;;;5047452;28;20469;-85
2022/03/09 02:16:57;;;;;;;17.90;9.20;;;;;;;;;;5048775;28;20481;-85
2022/03/09 02:19:23;;;;;;;22.55;9.25;;;;;;;;;;5047997;28;20447;-85
2022/03/09 02:21:52;;;;;;;23.25;9.13;;;;;;;;;;5046585;28;20554;-86
2022/03/09 02:24:18;;;;;;;;;;;;;;;;;;5047824;28;20041;-85
2022/03/09 02:26:44;;;;;;;22.05;8.48;;;;;;;;;;5048376;28;19948;-84
2022/03/09 02:29:10;;;;;;;23.35;8.93;;;;;;;;;;5048859;28;20013;-85
2022/03/09 02:31:36;;;;;;;22.73;9.52;;;;;;;;;;5049194;28;20108;-85
2022/03/09 02:34:02;;;;;;;22.40;9.45;;;;;;;;;;5048635;28;20484;-85
2022/03/09 02:36:28;;;;;;;24.52;9.52;;;;;;;;;;5048639;28;20075;-84
2022/03/09 02:38:54;;;;;;;22.10;9.15;;;;;;;;;;5048507;28;20471;-84
2022/03/09 02:41:20;;;;;;;19.52;8.00;;;;;;;;;;5048374;28;20067;-84
2022/03/09 02:43:46;;;;;;;20.23;8.10;;;;;;;;;;5048257;28;20041;-85
2022/03/09 02:46:12;;;;;;;17.23;8.10;;;;;;;;;;5043221;28;20033;-85
2022/03/09 02:48:38;;;;;;;22.85;9.68;;;;;;;;;;5048574;28;20040;-85
2022/03/09 02:51:05;;;;;;;20.38;8.23;;;;;;;;;;5046760;28;20036;-86
2022/03/09 02:53:31;;;;;;;26.90;8.15;;;;;;;;;;5047896;28;20021;-85
2022/03/09 02:55:57;;;;;;;18.80;8.13;;;;;;;;;;5048512;28;20021;-91
2022/03/09 02:58:23;;;;;;;19.73;8.57;;;;;;;;;;5048494;28;20480;-87
2022/03/09 03:00:49;;;;;;;18.13;8.30;;;;;;;;;;5048119;28;20021;-85
2022/03/09 03:03:15;;;;;;;19.85;8.82;;;;;;;;;;5046723;28;20040;-85
2022/03/09 03:05:42;;;;;;;22.23;8.90;;;;;;;;;;5051440;28;20028;-85
2022/03/09 03:08:08;;;;;;;21.08;8.68;;;;;;;;;;5062293;28;20029;-84
2022/03/09 03:10:34;;;;;;;22.65;9.63;;;;;;;;;;5065888;28;20035;-86
2022/03/09 03:13:00;;;;;;;22.23;8.55;;;;;;;;;;5052000;28;20025;-84
2022/03/09 03:15:26;;;;;;;24.98;9.30;;;;;;;;;;5051852;28;20393;-84
2022/03/09 03:17:52;;;;;;;19.80;9.07;;;;;;;;;;5051846;28;20533;-85
2022/03/09 03:20:18;;;;;;;15.52;8.65;;;;;;;;;;5050195;28;20485;-84
2022/03/09 03:22:44;;;;;;;25.55;8.98;;;;;;;;;;5051794;28;20040;-85
2022/03/09 03:25:10;;;;;;;21.45;8.48;;;;;;;;;;5052533;28;20029;-85
2022/03/09 03:27:36;;;;;;;22.70;8.77;;;;;;;;;;5051941;28;20112;-89
2022/03/09 03:30:02;;;;;;;23.05;8.68;;;;;;;;;;5051433;28;20021;-88
2022/03/09 03:32:28;;;;;;;15.65;7.97;;;;;;;;;;5051559;28;20029;-84
2022/03/09 03:34:55;;;;;;;14.88;7.20;;;;;;;;;;5051529;28;20096;-85
2022/03/09 03:37:21;;;;;;;17.48;7.38;;;;;;;;;;5051533;28;20465;-84
2022/03/09 03:39:47;;;;;;;14.38;7.65;;;;;;;;;;5051401;28;20465;-84
2022/03/09 03:42:13;;;;;;;14.63;7.45;;;;;;;;;;5050693;28;20047;-86
2022/03/09 03:44:39;;;;;;;15.68;7.43;;;;;;;;;;5051468;28;20475;-84
2022/03/09 03:47:05;;;;;;;13.27;7.72;;;;;;;;;;5051273;28;20747;-87
2022/03/09 03:49:31;;;;;;;15.68;7.90;;;;;;;;;;5049649;28;20059;-85
2022/03/09 03:51:57;;;;;;;17.77;8.15;;;;;;;;;;5051421;28;20037;-85
2022/03/09 03:54:23;;;;;;;19.13;7.78;;;;;;;;;;5049794;28;20021;-85
2022/03/09 03:56:49;;;;;;;16.85;7.80;;;;;;;;;;5051311;28;20036;-87
2022/03/09 03:59:15;;;;;;;15.98;7.43;;;;;;;;;;5050570;28;20100;-85
2022/03/09 04:01:41;;;;;;;23.35;8.20;;;;;;;;;;5051773;28;20033;-85
2022/03/09 04:04:07;;;;;;;16.45;8.27;;;;;;;;;;5050933;28;20064;-86
2022/03/09 04:06:34;;;;;;;13.05;7.50;;;;;;;;;;5051266;28;20036;-86
2022/03/09 04:09:00;;;;;;;13.90;7.72;;;;;;;;;;5049709;28;20024;-85
2022/03/09 04:11:26;;;;;;;16.25;8.02;;;;;;;;;;5049448;28;20074;-85
2022/03/09 04:13:52;;;;;;;18.52;7.78;;;;;;;;;;5050920;28;20064;-85
2022/03/09 04:16:18;;;;;;;15.20;7.10;;;;;;;;;;5064240;28;20021;-86
2022/03/09 04:18:44;;;;;;;15.35;7.38;;;;;;;;;;5054348;28;20094;-84
2022/03/09 04:21:10;;;;;;;14.65;7.07;;;;;;;;;;5050424;28;20013;-85
2022/03/09 04:23:36;;;;;;;13.18;7.03;;;;;;;;;;5050300;28;20033;-87
2022/03/09 04:26:06;;;;;;;12.77;7.35;;;;;;;;;;5049961;28;20052;-86
2022/03/09 04:28:32;;;;;;;20.23;7.10;;;;;;;;;;5049227;28;20091;-85
2022/03/09 04:30:58;;;;;;;18.40;6.63;;;;;;;;;;5048667;28;20110;-84
2022/03/09 04:33:24;;;;;;;15.75;6.50;;;;;;;;;;5050471;28;20029;-85
2022/03/09 04:35:51;;;;;;;13.85;6.50;;;;;;;;;;5049717;28;20029;-87
2022/03/09 04:38:17;;;;;;;12.80;5.88;;;;;;;;;;5059661;28;20021;-86
2022/03/09 04:40:43;;;;;;;17.20;7.03;;;;;;;;;;5070688;28;20055;-85
2022/03/09 04:43:09;;;;;;;20.13;6.97;;;;;;;;;;5051102;28;20114;-87
2022/03/09 04:45:35;;;;;;;18.00;6.35;;;;;;;;;;5050334;28;20099;-89
2022/03/09 04:48:01;;;;;;;18.48;6.20;;;;;;;;;;5048756;28;20021;-85
2022/03/09 04:50:27;;;;;;;16.27;6.10;;;;;;;;;;5049978;28;20033;-85
2022/03/09 04:52:54;;;;;;;19.60;5.75;;;;;;;;;;5048741;28;20054;-85
2022/03/09 04:55:20;;;;;;;16.25;5.40;;;;;;;;;;5048714;28;20025;-84
2022/03/09 04:57:46;;;;;;;17.55;6.32;;;;;;;;;;5050804;28;20025;-85
2022/03/09 05:00:13;;;;;;;16.08;6.20;;;;;;;;;;5049361;28;20025;-84
2022/03/09 05:02:39;;;;;;;16.38;6.20;;;;;;;;;;5049509;28;20017;-84
2022/03/09 05:05:05;;;;;;;19.08;6.07;;;;;;;;;;5049955;28;20047;-84
2022/03/09 05:07:31;;;;;;;15.30;5.75;;;;;;;;;;5048385;28;20025;-85
2022/03/09 05:09:57;;;;;;;14.18;5.65;;;;;;;;;;5048505;28;20055;-84
2022/03/09 05:12:23;;;;;;;20.25;6.70;;;;;;;;;;5048360;28;20504;-86
2022/03/09 05:14:49;;;;;;;14.80;6.15;;;;;;;;;;5049061;28;20377;-87
2022/03/09 05:17:16;;;;;;;15.52;5.68;;;;;;;;;;5050274;28;20443;-85
2022/03/09 05:19:42;;;;;;;16.65;6.05;;;;;;;;;;5048591;28;20037;-86
2022/03/09 05:22:08;;;;;;;18.05;5.82;;;;;;;;;;5049312;28;20473;-85
2022/03/09 05:24:34;;;;;;;17.55;5.60;;;;;;;;;;5047974;28;20029;-84
2022/03/09 05:27:00;;;;;;;16.58;5.82;;;;;;;;;;5049483;28;20028;-84
2022/03/09 05:29:26;;;;;;;16.77;6.22;;;;;;;;;;5047201;28;20123;-85
2022/03/09 05:31:52;;;;;;;13.07;5.45;;;;;;;;;;5049415;28;20037;-85
2022/03/09 05:34:18;;;;;;;14.73;5.80;;;;;;;;;;5050368;28;20131;-84
2022/03/09 05:36:44;;;;;;;17.08;6.45;;;;;;;;;;5049956;28;20068;-90
2022/03/09 05:39:10;;;;;;;13.73;5.78;;;;;;;;;;5049673;28;20036;-89
2022/03/09 05:41:37;;;;;;;14.43;5.20;;;;;;;;;;5047992;28;20028;-89
2022/03/09 05:44:03;;;;;;;19.83;5.57;;;;;;;;;;5048019;28;20036;-89
2022/03/09 05:46:30;;;;;;;19.48;5.45;;;;;;;;;;5048251;28;20053;-89
2022/03/09 05:48:56;;;;;;;18.65;5.43;;;;;;;;;;5048147;28;20070;-89
2022/03/09 05:51:22;;;;;;;19.45;5.60;;;;;;;;;;5048412;28;20033;-88
2022/03/09 05:53:48;;;;;;;14.00;5.75;;;;;;;;;;5049055;28;20048;-89
2022/03/09 05:56:15;;;;;;;12.65;5.30;;;;;;;;;;5049456;28;20536;-89
2022/03/09 05:58:41;;;;;;;15.88;5.53;;;;;;;;;;5048089;28;20036;-91
2022/03/09 06:01:07;;;;;;;13.50;5.25;;;;;;;;;;5048695;28;20119;-91
2022/03/09 06:03:33;;;;;;;12.63;5.05;;;;;;;;;;5049236;28;20691;-91
2022/03/09 06:05:59;;;;;;;12.32;4.55;;;;;;;;;;5048305;28;20025;-90
2022/03/09 06:08:25;;;;;;;15.63;4.63;;;;;;;;;;5048241;28;20373;-90
2022/03/09 06:10:52;;;;;;;17.35;4.40;;;;;;;;;;5049831;28;20021;-89
2022/03/09 06:13:18;;;;;;;15.50;5.53;;;;;;;;;;5048210;28;20039;-91
2022/03/09 06:15:45;;;;;;;16.02;4.85;;;;;;;;;;5048911;28;20017;-91
2022/03/09 06:18:11;;;;;;;12.15;5.28;;;;;;;;;;5048790;28;20050;-88
2022/03/09 06:20:37;;;;;;;18.80;5.47;;;;;;;;;;5047246;28;20408;-88
2022/03/09 06:23:03;;;;;;;16.75;5.78;;;;;;;;;;5047366;28;20504;-90
2022/03/09 06:25:30;;;;;;;20.67;6.30;;;;;;;;;;5048719;28;20516;-89
2022/03/09 06:27:58;;;;;;;19.63;5.80;;;;;;;;;;5037514;28;20051;-88
2022/03/09 06:30:24;;;;;;;15.43;5.72;;;;;;;;;;5041337;28;20444;-89
2022/03/09 06:32:50;;;;;;;21.45;5.63;;;;;;;;;;5041035;28;20033;-89
2022/03/09 06:35:17;;;;;;;15.50;5.97;;;;;;;;;;5047691;28;20481;-88
2022/03/09 06:37:43;;;;;;;16.40;5.85;;;;;;;;;;5046944;28;20408;-89
2022/03/09 06:40:09;;;;;;;13.30;5.25;;;;;;;;;;5046945;28;20024;-88
2022/03/09 06:42:35;;;;;;;16.35;5.30;;;;;;;;;;5051854;28;20025;-89
2022/03/09 06:45:02;;;;;;;12.15;5.00;;;;;;;;;;5047600;28;20021;-89
2022/03/09 06:47:28;;;;;;;15.30;5.40;;;;;;;;;;5049410;28;20085;-89
2022/03/09 06:49:54;;;;;;;15.77;5.25;;;;;;;;;;5050502;28;20493;-89
2022/03/09 06:52:20;;;;;;;12.32;4.90;;;;;;;;;;5052552;28;20500;-89
2022/03/09 06:54:46;;;;;;;16.52;4.18;;;;;;;;;;5051423;28;21027;-88
2022/03/09 06:57:12;;;;;;;14.57;4.20;;;;;;;;;;5052243;28;20033;-88
2022/03/09 06:59:38;;;;;;;16.30;4.40;;;;;;;;;;5051535;28;20508;-89
2022/03/09 07:02:05;;;;;;;15.60;4.60;;;;;;;;;;5050124;28;20066;-88
2022/03/09 07:04:31;;;;;;;14.00;4.40;;;;;;;;;;5049308;28;20013;-89
2022/03/09 07:06:57;;;;;;;16.70;5.68;;;;;;;;;;5051051;28;20029;-88
2022/03/09 07:09:23;;;;;;;16.98;4.65;;;;;;;;;;5055945;28;20385;-89
2022/03/09 07:11:50;;;;;;;16.02;5.60;;;;;;;;;;5071791;28;20032;-89
2022/03/09 07:14:16;;;;;;;19.25;5.20;;;;;;;;;;5071049;28;20024;-89
2022/03/09 07:16:42;;;;;;;16.83;5.43;;;;;;;;;;5071717;28;20095;-88
2022/03/09 07:19:08;;;;;;;13.18;5.45;;;;;;;;;;5071886;28;20499;-87
2022/03/09 07:21:34;;;;;;;15.70;5.47;;;;;;;;;;5071553;28;20017;-89
2022/03/09 07:24:00;;;;;;;14.45;5.45;;;;;;;;;;5070189;28;20032;-89
2022/03/09 07:26:26;;;;;;;17.90;5.40;;;;;;;;;;5070659;28;20039;-87
2022/03/09 07:28:53;;;;;;;14.00;5.50;;;;;;;;;;5072556;28;20103;-89
2022/03/09 07:31:19;;;;;;;19.02;5.70;;;;;;;;;;5072266;28;20070;-88
2022/03/09 07:33:45;;;;;;;15.80;5.07;;;;;;;;;;5068684;28;20376;-87
2022/03/09 07:36:11;;;;;;;22.67;5.38;;;;;;;;;;5047270;28;20017;-89
2022/03/09 07:38:38;;;;;;;19.17;4.65;;;;;;;;;;5054830;28;20471;-88
2022/03/09 07:41:04;;;;;;;19.33;5.47;;;;;;;;;;5049105;28;20083;-88
2022/03/09 07:43:30;;;;;;;14.50;4.90;;;;;;;;;;5050655;28;20111;-88
2022/03/09 07:45:56;;;;;;;11.73;4.82;;;;;;;;;;5050885;28;20021;-89
2022/03/09 07:48:23;;;;;;;13.88;4.55;;;;;;;;;;5046884;28;20090;-92
2022/03/09 07:50:49;;;;;;;12.10;4.00;;;;;;;;;;5050329;28;20032;-92
2022/03/09 07:53:15;;;;;;;14.15;4.47;;;;;;;;;;5048513;28;20021;-88
2022/03/09 07:55:41;;;;;;;17.02;4.22;;;;;;;;;;5050895;28;20077;-89
2022/03/09 07:58:07;;;;;;;18.30;4.43;;;;;;;;;;5050759;28;20113;-88
2022/03/09 08:00:33;;;;;;;14.18;3.95;;;;;;;;;;5050624;28;20021;-89
2022/03/09 08:02:59;;;;;;;15.68;4.63;;;;;;;;;;5050680;28;20550;-89
2022/03/09 08:05:25;;;;;;;17.02;4.80;;;;;;;;;;5050497;28;20052;-88
2022/03/09 08:07:51;;;;;;;14.18;4.32;;;;;;;;;;5049601;28;20397;-89
2022/03/09 08:10:19;;;;;;;21.05;4.82;;;;;;;;;;5049908;28;20048;-89
2022/03/09 08:12:45;;;;;;;18.57;4.87;;;;;;;;;;5049856;28;20465;-90
2022/03/09 08:15:11;;;;;;;15.07;4.78;;;;;;;;;;5050974;28;20076;-90
2022/03/09 08:17:38;;;;;;;11.43;5.20;;;;;;;;;;5050454;28;20027;-89
2022/03/09 08:20:04;;;;;;;21.08;5.07;;;;;;;;;;5049426;28;20124;-90
2022/03/09 08:22:30;;;;;;;11.57;4.30;;;;;;;;;;5049462;28;20033;-90
2022/03/09 08:24:57;;;;;;;10.82;4.47;;;;;;;;;;5051294;28;20033;-89
2022/03/09 08:27:23;;;;;;;10.77;4.07;;;;;;;;;;5051125;28;20048;-90
2022/03/09 08:29:50;;;;;;;11.32;4.18;;;;;;;;;;5050845;28;20025;-89
2022/03/09 08:32:18;;;;;;;12.52;3.75;;;;;;;;;;5049112;28;20025;-89
2022/03/09 08:34:44;;;;;;;12.38;3.03;;;;;;;;;;5050159;28;20048;-87
2022/03/09 08:37:10;;;;;;;5.93;2.60;;;;;;;;;;5048882;28;20491;-89
2022/03/09 08:39:36;;;;;;;7.38;2.85;;;;;;;;;;5049040;28;20021;-89
2022/03/09 08:42:02;;;;;;;9.77;3.10;;;;;;;;;;5050353;28;20021;-88
2022/03/09 08:44:28;;;;;;;7.45;2.72;;;;;;;;;;5050249;28;20033;-88
2022/03/09 08:46:54;;;;;;;14.68;3.60;;;;;;;;;;5070054;28;20075;-88
2022/03/09 08:49:20;;;;;;;11.32;2.42;;;;;;;;;;5068668;28;20024;-88
2022/03/09 08:51:46;;;;;;;6.93;3.25;;;;;;;;;;5069893;28;20438;-88
2022/03/09 08:54:13;;;;;;;14.18;3.47;;;;;;;;;;5049885;28;20033;-90
2022/03/09 08:56:39;;;;;;;14.95;3.92;;;;;;;;;;5049685;28;20071;-87
2022/03/09 08:59:05;;;;;;;15.15;4.43;;;;;;;;;;5050361;28;20032;-88
2022/03/09 09:01:31;;;;;;;12.90;3.80;;;;;;;;;;5048581;28;20017;-88
2022/03/09 09:03:57;;;;;;;12.52;3.90;;;;;;;;;;5050891;28;20040;-88
2022/03/09 09:06:23;;;;;;;10.95;3.80;;;;;;;;;;5050312;28;20029;-90
2022/03/09 09:08:49;;;;;;;10.70;3.72;;;;;;;;;;5049775;28;20032;-90
2022/03/09 09:11:15;;;;;;;10.48;3.90;;;;;;;;;;5054012;28;20093;-90
2022/03/09 09:13:41;;;;;;;9.13;3.10;;;;;;;;;;5069214;28;20033;-89
2022/03/09 09:16:07;;;;;;;11.55;3.38;;;;;;;;;;5070227;28;20020;-93
2022/03/09 09:18:33;;;;;;;13.90;3.60;;;;;;;;;;5052262;28;20025;-90
2022/03/09 09:20:59;;;;;;;8.70;3.65;;;;;;;;;;5049557;28;20223;-91
2022/03/09 09:23:25;;;;;;;13.13;4.05;;;;;;;;;;5050716;28;20037;-87
2022/03/09 09:25:51;;;;;;;12.88;3.88;;;;;;;;;;5049912;28;20060;-87
2022/03/09 09:28:18;;;;;;;6.38;3.42;;;;;;;;;;5049184;28;20067;-89
2022/03/09 09:30:44;;;;;;;12.55;3.75;;;;;;;;;;5048548;28;20112;-87
2022/03/09 09:33:10;;;;;;;13.93;4.38;;;;;;;;;;5050112;28;20029;-91
2022/03/09 09:35:36;;;;;;;16.63;4.50;;;;;;;;;;5049597;28;20028;-89
2022/03/09 09:38:06;;;;;;;8.07;3.97;;;;;;;;;;5047879;28;20032;-87
2022/03/09 09:40:45;;;;;;;13.85;4.13;;;;;;;;;;5059673;28;20131;-89
2022/03/09 09:43:12;;;;;;;13.50;4.53;;;;;;;;;;5057472;28;20127;-90
2022/03/09 09:45:38;;;;;;;9.02;4.55;;;;;;;;;;5049074;28;20017;-88
2022/03/09 09:48:06;;;;;;;14.05;4.70;;;;;;;;;;5048819;28;20083;-89
2022/03/09 09:50:32;;;;;;;10.77;4.38;;;;;;;;;;5047763;28;20029;-88
2022/03/09 09:52:58;;;;;;;7.95;4.47;;;;;;;;;;5048808;28;20036;-90
2022/03/09 09:55:28;;;;;;;9.48;4.38;;;;;;;;;;5048683;28;20021;-88
2022/03/09 09:57:55;;;;;;;7.82;3.88;;;;;;;;;;5049015;28;20033;-88
2022/03/09 10:00:22;;;;;;;12.93;4.40;;;;;;;;;;5047485;28;20507;-88
2022/03/09 10:02:48;;;;;;;7.75;4.07;;;;;;;;;;5048967;28;20051;-89
2022/03/09 10:05:15;;;;;;;16.20;4.65;;;;;;;;;;5047770;28;20028;-91
2022/03/09 10:08:00;;;;;;;12.52;4.47;;;;;;;;;;5049156;28;20520;-88
2022/03/09 10:10:26;;;;;;;12.13;5.18;;;;;;;;;;5048347;28;20024;-88
2022/03/09 10:12:52;;;;;;;14.57;4.38;;;;;;;;;;5048792;28;20021;-88
2022/03/09 10:15:18;;;;;;;12.65;4.50;;;;;;;;;;5048153;28;20025;-89
2022/03/09 10:17:44;;;;;;;9.95;4.55;;;;;;;;;;5046678;28;20067;-88
2022/03/09 10:20:12;;;;;;;12.73;3.95;;;;;;;;;;5048294;28;20504;-91
2022/03/09 10:22:42;;;;;;;7.80;4.00;;;;;;;;;;5047710;28;20104;-87
2022/03/09 10:25:11;;;;;;;18.27;4.47;;;;;;;;;;5047852;28;20021;-89
2022/03/09 10:27:50;;;;;;;12.13;4.40;;;;;;;;;;5047462;28;20029;-88
2022/03/09 10:30:17;;;;;;;13.15;4.55;;;;;;;;;;5048271;28;20369;-88
2022/03/09 10:32:44;;;;;;;12.73;4.35;;;;;;;;;;5048452;28;20029;-88
2022/03/09 10:35:11;;;;;;;9.50;4.03;;;;;;;;;;5048466;28;20021;-88
2022/03/09 10:37:44;;;;;;;11.27;4.63;;;;;;;;;;5048292;28;20021;-88
2022/03/09 10:40:21;;;;;;;7.22;3.95;;;;;;;;;;5048284;28;20025;-88
2022/03/09 10:42:47;;;;;;;11.82;4.90;;;;;;;;;;5046699;28;20120;-91
2022/03/09 10:45:17;;;;;;;12.32;4.47;;;;;;;;;;5047249;28;20021;-89
2022/03/09 10:47:44;;;;;;;14.60;4.40;;;;;;;;;;5048199;28;20057;-87
2022/03/09 10:50:11;;;;;;;14.80;4.63;;;;;;;;;;5048164;28;20029;-88
2022/03/09 10:53:04;;;;;;;14.88;4.10;;;;;;;;;;5048241;28;20045;-89
2022/03/09 10:55:36;;;;;;;9.98;4.30;;;;;;;;;;5045519;28;20067;-88
2022/03/09 10:58:09;;;;;;;10.13;4.35;;;;;;;;;;5049264;28;20189;-91
2022/03/09 11:00:46;;;;;;;14.60;4.07;;;;;;;;;;5047568;28;20059;-88
2022/03/09 11:03:12;;;;;;;8.48;3.95;;;;;;;;;;5047062;28;20041;-91
2022/03/09 11:05:55;;;;;;;13.60;4.60;;;;;;;;;;5047008;28;20021;-89
2022/03/09 11:08:23;;;;;;;14.60;4.57;;;;;;;;;;5046946;28;20021;-88
2022/03/09 11:10:49;;;;;;;18.27;4.33;;;;;;;;;;5046263;28;20404;-89
2022/03/09 11:13:16;;;;;;;12.88;4.25;;;;;;;;;;5048294;28;20111;-89
2022/03/09 11:15:43;;;;;;;20.83;4.28;;;;;;;;;;5046822;28;20401;-88
2022/03/09 11:18:18;;;;;;;12.98;4.60;;;;;;;;;;5048643;28;20572;-88
2022/03/09 11:20:45;;;;;;;13.45;4.53;;;;;;;;;;5046994;28;20021;-88
2022/03/09 11:23:12;;;;;;;14.80;5.13;;;;;;;;;;5046961;28;20492;-89
2022/03/09 11:25:39;;;;;;;20.98;5.32;;;;;;;;;;5047101;28;20017;-88
2022/03/09 11:28:06;;;;;;;18.65;4.63;;;;;;;;;;5049947;28;20033;-88
2022/03/09 11:30:33;;;;;;;13.57;4.55;;;;;;;;;;5052869;28;20485;-88
2022/03/09 11:33:00;;;;;;;13.07;4.80;;;;;;;;;;5051095;28;20392;-88
2022/03/09 11:35:40;;;;;;;20.23;6.10;;;;;;;;;;5051897;28;20025;-89
2022/03/09 11:38:35;;;;;;;16.42;6.25;;;;;;;;;;5051884;28;20025;-89
2022/03/09 11:41:14;;;;;;;18.45;5.07;;;;;;;;;;4999567;28;20393;-90
2022/03/09 11:43:40;;;;;;;13.75;5.35;;;;;;;;;;5050416;28;20037;-86
2022/03/09 11:46:06;;;;;;;10.75;4.80;;;;;;;;;;5051464;28;20024;-87
2022/03/09 11:48:59;;;;;;;12.20;4.50;;;;;;;;;;5052175;28;20029;-89
2022/03/09 11:51:28;;;;;;;12.60;4.65;;;;;;;;;;5050007;28;20194;-89
2022/03/09 11:53:56;;;;;;;17.27;5.65;;;;;;;;;;5051422;28;20025;-89
2022/03/09 11:56:23;;;;;;;15.73;5.28;;;;;;;;;;5050149;28;20516;-89
2022/03/09 11:59:07;;;;;;;18.23;5.40;;;;;;;;;;5051312;28;20035;-88
2022/03/09 12:01:53;;;;;;;12.90;5.05;;;;;;;;;;5050825;28;20044;-89
2022/03/09 12:04:37;;;;;;;9.57;3.83;;;;;;;;;;5051137;28;20431;-89
2022/03/09 12:07:04;;;;;;;14.07;3.95;;;;;;;;;;5051910;28;20052;-86
2022/03/09 12:09:49;;;;;;;8.63;3.65;;;;;;;;;;5049565;28;20102;-86
2022/03/09 12:12:15;;;;;;;12.23;3.53;;;;;;;;;;5051038;28;20549;-88
2022/03/09 12:14:59;;;;;;;18.30;3.53;;;;;;;;;;5051112;28;20029;-88
2022/03/09 12:17:29;;;;;;;10.95;3.15;;;;;;;;;;5049615;28;20064;-87
2022/03/09 12:20:14;;;;;;;9.02;2.38;;;;;;;;;;5049213;28;20029;-88
2022/03/09 12:22:56;;;;;;;8.35;2.67;;;;;;;;;;5047270;28;20021;-88
2022/03/09 12:25:40;;;;;;;5.72;2.10;;;;;;;;;;5048003;28;20060;-89
2022/03/09 12:30:56;;;;;;;10.48;2.92;;;;;;;;;;5032074;28;20025;-91
2022/03/09 12:33:25;;;;;;;4.93;2.00;;;;;;;;;;5030805;28;20071;-90
2022/03/09 12:36:03;;;;;;;11.18;3.00;;;;;;;;;;5032002;28;20030;-91
2022/03/09 12:38:29;;;;;;;;;;;;;;;;;;5030673;28;20486;-91
2022/03/09 12:40:55;;;;;;;10.75;2.95;;;;;;;;;;5030354;28;19905;-92
2022/03/09 12:43:23;;;;;;;8.68;2.70;;;;;;;;;;5030535;28;20478;-90
2022/03/09 12:45:54;;;;;;;7.35;2.72;;;;;;;;;;5031421;28;20474;-90
2022/03/09 12:48:23;;;;;;;9.70;2.70;;;;;;;;;;5031117;28;20560;-91
2022/03/09 12:50:50;;;;;;;6.10;2.05;;;;;;;;;;5031100;28;20026;-90
2022/03/09 12:53:22;;;;;;;5.60;2.28;;;;;;;;;;5030180;28;20477;-91
2022/03/09 12:55:51;;;;;;;9.02;1.90;;;;;;;;;;5030033;28;20025;-92
2022/03/09 12:58:25;;;;;;;9.13;2.15;;;;;;;;;;5040682;28;20032;-92
2022/03/09 13:01:01;;;;;;;5.50;2.05;;;;;;;;;;5049654;28;20049;-91
2022/03/09 13:03:30;;;;;;;9.07;2.08;;;;;;;;;;5050184;28;20037;-90
2022/03/09 13:05:56;;;;;;;;;;;;;;;;;;5050084;28;20120;-88
2022/03/09 13:08:22;;;;;;;7.95;2.22;;;;;;;;;;5050557;28;20002;-89
2022/03/09 13:10:52;;;;;;;9.32;2.85;;;;;;;;;;5050157;28;20489;-89
2022/03/09 13:13:20;;;;;;;7.28;2.47;;;;;;;;;;5046466;28;20021;-91
2022/03/09 13:15:51;;;;;;;10.18;2.53;;;;;;;;;;5049034;28;20025;-93
2022/03/09 13:18:27;;;;;;;7.20;3.05;;;;;;;;;;5048998;28;20031;-91
2022/03/09 13:20:53;;;;;;;9.48;2.53;;;;;;;;;;5048803;28;20615;-91
2022/03/09 13:23:40;;;;;;;5.43;2.33;;;;;;;;;;5048916;28;20468;-91
2022/03/09 13:26:16;;;;;;;6.65;2.40;;;;;;;;;;5049127;28;20076;-90
2022/03/09 13:28:52;;;;;;;4.85;2.13;;;;;;;;;;5049036;28;20036;-94
2022/03/09 13:31:18;;;;;;;5.78;2.00;;;;;;;;;;5033006;28;20025;-89
2022/03/09 13:33:48;;;;;;;6.85;1.98;;;;;;;;;;5029082;28;20077;-89
2022/03/09 13:36:15;;;;;;;4.90;1.90;;;;;;;;;;5030448;28;20017;-90
2022/03/09 13:38:43;;;;;;;3.83;1.20;;;;;;;;;;5029005;28;20116;-90
2022/03/09 13:41:09;;;;;;;8.13;2.40;;;;;;;;;;5030728;28;20018;-89
2022/03/09 13:43:37;;;;;;;3.15;1.75;;;;;;;;;;5030953;28;20033;-89
2022/03/09 13:46:16;;;;;;;4.43;1.90;;;;;;;;;;5029565;28;20032;-89
2022/03/09 13:48:42;;;;;;;3.55;1.70;;;;;;;;;;5029357;28;20032;-88
2022/03/09 13:51:09;;;;;;;5.18;1.50;;;;;;;;;;5029476;28;20500;-90
2022/03/09 13:53:36;;;;;;;4.57;1.60;;;;;;;;;;5029993;28;20029;-89
2022/03/09 13:56:03;;;;;;;4.50;1.73;;;;;;;;;;5029282;28;20036;-90
2022/03/09 13:58:38;;;;;;;4.43;2.00;;;;;;;;;;5029239;28;20541;-90
2022/03/09 14:01:06;;;;;;;7.28;3.10;;;;;;;;;;5029272;28;20120;-88
2022/03/09 14:03:33;;;;;;;;;;;;;;;;;;5030894;28;20030;-90
2022/03/09 14:05:59;;;;;;;5.03;1.77;;;;;;;;;;5029029;28;19905;-91
2022/03/09 14:08:26;;;;;;;2.83;1.90;;;;;;;;;;5031239;28;20024;-90
2022/03/09 14:11:05;;;;;;;5.65;2.08;;;;;;;;;;5029326;28;20026;-90
2022/03/09 14:13:33;;;;;;;;;;;;;;;;;;5029568;28;20028;-91
2022/03/09 14:16:00;;;;;;;7.10;1.90;;;;;;;;;;5029040;28;19940;-89
2022/03/09 14:18:26;;;;;;;2.67;1.60;;;;;;;;;;5029646;28;20057;-90
2022/03/09 14:20:55;;;;;;;7.95;2.10;;;;;;;;;;5030157;28;20029;-90
2022/03/09 14:23:22;;;;;;;4.65;1.92;;;;;;;;;;5029291;28;20037;-90
2022/03/09 14:25:48;;;;;;;4.43;1.83;;;;;;;;;;5029128;28;20029;-91
2022/03/09 14:28:14;;;;;;;4.97;1.77;;;;;;;;;;5028874;28;20032;-89
2022/03/09 14:30:41;;;;;;;6.75;2.00;;;;;;;;;;5029700;28;20033;-90
2022/03/09 14:33:07;;;;;;;4.72;1.80;;;;;;;;;;5029750;28;20045;-89
2022/03/09 14:35:33;;;;;;;5.90;1.98;;;;;;;;;;5030241;28;20033;-91
2022/03/09 14:37:59;;;;;;;2.03;1.50;;;;;;;;;;5028828;28;20018;-90
2022/03/09 14:40:27;;;;;;;2.47;1.70;;;;;;;;;;5029210;28;20045;-90